sensor_id;sensor_type;location;lat;lon;timestamp;P1;durP1;ratioP1;P2;durP2;ratioP2
69203;SDS011;56317;27.658;85.326;2023-01-24T00:00:53;220.05;;;100.50;;
69203;SDS011;56317;27.658;85.326;2023-01-24T00:03:20;229.15;;;104.75;;
69203;SDS011;56317;27.658;85.326;2023-01-24T00:05:48;224.90;;;103.68;;
69203;SDS011;56317;27.658;85.326;2023-01-24T00:08:16;218.80;;;106.07;;
69203;SDS011;56317;27.658;85.326;2023-01-24T00:10:46;239.30;;;111.82;;
69203;SDS011;56317;27.658;85.326;2023-01-24T00:13:14;226.57;;;112.00;;
69203;SDS011;56317;27.658;85.326;2023-01-24T00:15:42;230.40;;;111.93;;
69203;SDS011;56317;27.658;85.326;2023-01-24T00:18:10;220.55;;;114.30;;
69203;SDS011;56317;27.658;85.326;2023-01-24T00:20:37;222.73;;;114.28;;
69203;SDS011;56317;27.658;85.326;2023-01-24T00:23:05;233.55;;;117.32;;
69203;SDS011;56317;27.658;85.326;2023-01-24T00:25:33;214.57;;;115.88;;
69203;SDS011;56317;27.658;85.326;2023-01-24T00:28:00;226.57;;;115.55;;
69203;SDS011;56317;27.658;85.326;2023-01-24T00:30:27;243.25;;;119.18;;
69203;SDS011;56317;27.658;85.326;2023-01-24T00:32:54;245.88;;;118.15;;
69203;SDS011;56317;27.658;85.326;2023-01-24T00:35:21;244.73;;;124.20;;
69203;SDS011;56317;27.658;85.326;2023-01-24T00:37:49;251.90;;;124.07;;
69203;SDS011;56317;27.658;85.326;2023-01-24T00:40:16;244.10;;;124.07;;
69203;SDS011;56317;27.658;85.326;2023-01-24T00:42:43;239.80;;;124.13;;
69203;SDS011;56317;27.658;85.326;2023-01-24T00:45:10;256.50;;;126.22;;
69203;SDS011;56317;27.658;85.326;2023-01-24T00:47:37;233.10;;;125.47;;
69203;SDS011;56317;27.658;85.326;2023-01-24T00:50:05;234.13;;;125.80;;
69203;SDS011;56317;27.658;85.326;2023-01-24T00:52:32;250.10;;;123.20;;
69203;SDS011;56317;27.658;85.326;2023-01-24T00:54:59;247.20;;;126.82;;
69203;SDS011;56317;27.658;85.326;2023-01-24T00:57:27;253.32;;;128.20;;
69203;SDS011;56317;27.658;85.326;2023-01-24T00:59:54;279.02;;;152.00;;
69203;SDS011;56317;27.658;85.326;2023-01-24T01:02:21;335.90;;;202.98;;
69203;SDS011;56317;27.658;85.326;2023-01-24T01:04:49;269.55;;;134.25;;
69203;SDS011;56317;27.658;85.326;2023-01-24T01:07:16;258.38;;;132.23;;
69203;SDS011;56317;27.658;85.326;2023-01-24T01:09:46;252.85;;;132.32;;
69203;SDS011;56317;27.658;85.326;2023-01-24T01:12:13;268.83;;;135.48;;
69203;SDS011;56317;27.658;85.326;2023-01-24T01:14:40;285.95;;;138.25;;
69203;SDS011;56317;27.658;85.326;2023-01-24T01:17:07;288.40;;;138.38;;
69203;SDS011;56317;27.658;85.326;2023-01-24T01:19:34;314.02;;;143.05;;
69203;SDS011;56317;27.658;85.326;2023-01-24T01:22:02;281.52;;;136.13;;
69203;SDS011;56317;27.658;85.326;2023-01-24T01:24:29;271.13;;;131.95;;
69203;SDS011;56317;27.658;85.326;2023-01-24T01:26:56;274.17;;;136.30;;
69203;SDS011;56317;27.658;85.326;2023-01-24T01:29:23;287.17;;;135.57;;
69203;SDS011;56317;27.658;85.326;2023-01-24T01:31:50;291.70;;;133.35;;
69203;SDS011;56317;27.658;85.326;2023-01-24T01:34:17;263.15;;;128.40;;
69203;SDS011;56317;27.658;85.326;2023-01-24T01:36:45;262.75;;;127.43;;
69203;SDS011;56317;27.658;85.326;2023-01-24T01:39:12;253.65;;;126.45;;
69203;SDS011;56317;27.658;85.326;2023-01-24T01:41:39;256.60;;;124.50;;
69203;SDS011;56317;27.658;85.326;2023-01-24T01:44:23;262.25;;;125.15;;
69203;SDS011;56317;27.658;85.326;2023-01-24T01:47:21;240.07;;;124.43;;
69203;SDS011;56317;27.658;85.326;2023-01-24T01:49:51;255.63;;;128.15;;
69203;SDS011;56317;27.658;85.326;2023-01-24T01:52:24;244.45;;;122.65;;
69203;SDS011;56317;27.658;85.326;2023-01-24T01:54:57;245.60;;;122.80;;
69203;SDS011;56317;27.658;85.326;2023-01-24T01:57:30;228.82;;;123.97;;
69203;SDS011;56317;27.658;85.326;2023-01-24T02:02:40;262.00;;;126.78;;
69203;SDS011;56317;27.658;85.326;2023-01-24T02:08:01;241.63;;;128.05;;
69203;SDS011;56317;27.658;85.326;2023-01-24T02:10:29;256.80;;;125.93;;
69203;SDS011;56317;27.658;85.326;2023-01-24T02:13:18;258.90;;;138.00;;
69203;SDS011;56317;27.658;85.326;2023-01-24T02:15:46;254.80;;;135.38;;
69203;SDS011;56317;27.658;85.326;2023-01-24T02:18:28;272.30;;;142.65;;
69203;SDS011;56317;27.658;85.326;2023-01-24T02:20:57;293.05;;;155.32;;
69203;SDS011;56317;27.658;85.326;2023-01-24T02:24:26;290.13;;;153.50;;
69203;SDS011;56317;27.658;85.326;2023-01-24T02:26:39;289.98;;;156.32;;
69203;SDS011;56317;27.658;85.326;2023-01-24T02:29:07;297.02;;;164.18;;
69203;SDS011;56317;27.658;85.326;2023-01-24T02:31:55;290.77;;;160.90;;
69203;SDS011;56317;27.658;85.326;2023-01-24T02:34:27;267.42;;;148.15;;
69203;SDS011;56317;27.658;85.326;2023-01-24T02:36:59;244.35;;;145.13;;
69203;SDS011;56317;27.658;85.326;2023-01-24T02:39:50;259.52;;;146.02;;
69203;SDS011;56317;27.658;85.326;2023-01-24T02:42:25;262.75;;;149.77;;
69203;SDS011;56317;27.658;85.326;2023-01-24T02:47:38;279.50;;;154.15;;
69203;SDS011;56317;27.658;85.326;2023-01-24T02:50:09;280.85;;;160.02;;
69203;SDS011;56317;27.658;85.326;2023-01-24T02:52:37;277.27;;;161.55;;
69203;SDS011;56317;27.658;85.326;2023-01-24T02:55:23;262.45;;;150.00;;
69203;SDS011;56317;27.658;85.326;2023-01-24T02:57:50;247.98;;;147.75;;
69203;SDS011;56317;27.658;85.326;2023-01-24T03:00:36;264.20;;;149.43;;
69203;SDS011;56317;27.658;85.326;2023-01-24T03:03:05;265.30;;;147.05;;
69203;SDS011;56317;27.658;85.326;2023-01-24T03:05:33;266.95;;;146.13;;
69203;SDS011;56317;27.658;85.326;2023-01-24T03:08:19;260.05;;;146.85;;
69203;SDS011;56317;27.658;85.326;2023-01-24T03:10:47;254.95;;;149.43;;
69203;SDS011;56317;27.658;85.326;2023-01-24T03:13:14;252.25;;;145.98;;
69203;SDS011;56317;27.658;85.326;2023-01-24T03:16:00;260.42;;;148.80;;
69203;SDS011;56317;27.658;85.326;2023-01-24T03:18:45;242.50;;;142.68;;
69203;SDS011;56317;27.658;85.326;2023-01-24T03:21:30;239.55;;;135.02;;
69203;SDS011;56317;27.658;85.326;2023-01-24T03:24:16;234.68;;;132.40;;
69203;SDS011;56317;27.658;85.326;2023-01-24T03:27:02;227.65;;;129.60;;
69203;SDS011;56317;27.658;85.326;2023-01-24T03:29:47;161.57;;;97.47;;
69203;SDS011;56317;27.658;85.326;2023-01-24T03:35:23;191.55;;;102.03;;
69203;SDS011;56317;27.658;85.326;2023-01-24T03:37:51;191.48;;;105.32;;
69203;SDS011;56317;27.658;85.326;2023-01-24T03:40:36;188.95;;;109.53;;
69203;SDS011;56317;27.658;85.326;2023-01-24T03:43:04;198.45;;;111.90;;
69203;SDS011;56317;27.658;85.326;2023-01-24T03:45:35;198.38;;;114.13;;
69203;SDS011;56317;27.658;85.326;2023-01-24T03:48:12;200.32;;;114.07;;
69203;SDS011;56317;27.658;85.326;2023-01-24T03:50:40;183.90;;;113.28;;
69203;SDS011;56317;27.658;85.326;2023-01-24T03:55:58;201.07;;;112.57;;
69203;SDS011;56317;27.658;85.326;2023-01-24T03:58:32;187.90;;;114.60;;
69203;SDS011;56317;27.658;85.326;2023-01-24T04:01:11;199.32;;;109.28;;
69203;SDS011;56317;27.658;85.326;2023-01-24T04:03:39;192.38;;;109.45;;
69203;SDS011;56317;27.658;85.326;2023-01-24T04:06:06;197.73;;;110.10;;
69203;SDS011;56317;27.658;85.326;2023-01-24T04:08:34;164.88;;;99.45;;
69203;SDS011;56317;27.658;85.326;2023-01-24T04:11:01;178.23;;;104.50;;
69203;SDS011;56317;27.658;85.326;2023-01-24T04:13:32;176.40;;;104.60;;
69203;SDS011;56317;27.658;85.326;2023-01-24T04:16:02;173.05;;;105.90;;
69203;SDS011;56317;27.658;85.326;2023-01-24T04:18:44;169.00;;;95.57;;
69203;SDS011;56317;27.658;85.326;2023-01-24T04:21:12;171.23;;;93.05;;
69203;SDS011;56317;27.658;85.326;2023-01-24T04:23:39;156.68;;;90.88;;
69203;SDS011;56317;27.658;85.326;2023-01-24T04:26:24;138.38;;;84.90;;
69203;SDS011;56317;27.658;85.326;2023-01-24T04:28:51;108.90;;;69.18;;
69203;SDS011;56317;27.658;85.326;2023-01-24T04:31:21;133.55;;;81.57;;
69203;SDS011;56317;27.658;85.326;2023-01-24T04:33:55;138.98;;;80.50;;
69203;SDS011;56317;27.658;85.326;2023-01-24T04:36:22;134.10;;;76.07;;
69203;SDS011;56317;27.658;85.326;2023-01-24T04:38:50;126.80;;;78.60;;
69203;SDS011;56317;27.658;85.326;2023-01-24T04:41:17;115.68;;;72.35;;
69203;SDS011;56317;27.658;85.326;2023-01-24T04:43:45;142.10;;;76.13;;
69203;SDS011;56317;27.658;85.326;2023-01-24T04:46:12;135.05;;;76.53;;
69203;SDS011;56317;27.658;85.326;2023-01-24T04:48:42;148.13;;;83.57;;
69203;SDS011;56317;27.658;85.326;2023-01-24T04:51:09;114.38;;;69.93;;
69203;SDS011;56317;27.658;85.326;2023-01-24T04:53:40;100.40;;;59.63;;
69203;SDS011;56317;27.658;85.326;2023-01-24T04:56:07;108.47;;;65.15;;
69203;SDS011;56317;27.658;85.326;2023-01-24T04:58:37;121.22;;;74.97;;
69203;SDS011;56317;27.658;85.326;2023-01-24T05:01:21;129.38;;;77.50;;
69203;SDS011;56317;27.658;85.326;2023-01-24T05:06:42;148.73;;;89.95;;
69203;SDS011;56317;27.658;85.326;2023-01-24T05:09:09;141.98;;;83.25;;
69203;SDS011;56317;27.658;85.326;2023-01-24T05:11:40;158.38;;;88.70;;
69203;SDS011;56317;27.658;85.326;2023-01-24T05:14:10;142.33;;;89.20;;
69203;SDS011;56317;27.658;85.326;2023-01-24T05:16:47;160.68;;;95.15;;
69203;SDS011;56317;27.658;85.326;2023-01-24T05:19:14;138.30;;;87.72;;
69203;SDS011;56317;27.658;85.326;2023-01-24T05:21:42;129.50;;;85.82;;
69203;SDS011;56317;27.658;85.326;2023-01-24T05:24:13;139.63;;;83.93;;
69203;SDS011;56317;27.658;85.326;2023-01-24T05:26:49;125.50;;;79.43;;
69203;SDS011;56317;27.658;85.326;2023-01-24T05:29:25;121.85;;;74.70;;
69203;SDS011;56317;27.658;85.326;2023-01-24T05:31:56;118.05;;;71.78;;
69203;SDS011;56317;27.658;85.326;2023-01-24T05:34:23;131.65;;;71.13;;
69203;SDS011;56317;27.658;85.326;2023-01-24T05:36:51;111.95;;;68.40;;
69203;SDS011;56317;27.658;85.326;2023-01-24T05:39:18;115.78;;;71.22;;
69203;SDS011;56317;27.658;85.326;2023-01-24T05:41:45;117.60;;;75.50;;
69203;SDS011;56317;27.658;85.326;2023-01-24T05:44:13;121.75;;;74.95;;
69203;SDS011;56317;27.658;85.326;2023-01-24T05:46:40;114.70;;;69.85;;
69203;SDS011;56317;27.658;85.326;2023-01-24T05:49:12;124.47;;;66.97;;
69203;SDS011;56317;27.658;85.326;2023-01-24T05:51:39;116.70;;;67.95;;
69203;SDS011;56317;27.658;85.326;2023-01-24T05:54:07;117.35;;;64.75;;
69203;SDS011;56317;27.658;85.326;2023-01-24T05:56:34;119.10;;;65.03;;
69203;SDS011;56317;27.658;85.326;2023-01-24T05:59:02;106.43;;;65.07;;
69203;SDS011;56317;27.658;85.326;2023-01-24T06:01:30;120.45;;;67.43;;
69203;SDS011;56317;27.658;85.326;2023-01-24T06:03:57;122.15;;;65.85;;
69203;SDS011;56317;27.658;85.326;2023-01-24T06:06:25;106.47;;;61.78;;
69203;SDS011;56317;27.658;85.326;2023-01-24T06:08:52;85.75;;;53.45;;
69203;SDS011;56317;27.658;85.326;2023-01-24T06:11:21;88.97;;;54.70;;
69203;SDS011;56317;27.658;85.326;2023-01-24T06:13:49;84.75;;;52.35;;
69203;SDS011;56317;27.658;85.326;2023-01-24T06:16:20;83.45;;;52.45;;
69203;SDS011;56317;27.658;85.326;2023-01-24T06:18:49;84.43;;;53.53;;
69203;SDS011;56317;27.658;85.326;2023-01-24T06:24:13;59.97;;;38.88;;
69203;SDS011;56317;27.658;85.326;2023-01-24T06:26:49;64.22;;;41.53;;
69203;SDS011;56317;27.658;85.326;2023-01-24T06:29:18;71.57;;;43.35;;
69203;SDS011;56317;27.658;85.326;2023-01-24T06:37:14;69.10;;;31.30;;
69203;SDS011;56317;27.658;85.326;2023-01-24T06:39:57;67.20;;;30.17;;
69203;SDS011;56317;27.658;85.326;2023-01-24T06:42:24;76.32;;;31.00;;
69203;SDS011;56317;27.658;85.326;2023-01-24T06:44:53;61.95;;;30.35;;
69203;SDS011;56317;27.658;85.326;2023-01-24T06:47:23;75.15;;;30.70;;
69203;SDS011;56317;27.658;85.326;2023-01-24T06:52:21;69.38;;;30.48;;
69203;SDS011;56317;27.658;85.326;2023-01-24T06:54:48;57.28;;;28.58;;
69203;SDS011;56317;27.658;85.326;2023-01-24T06:57:15;71.55;;;30.90;;
69203;SDS011;56317;27.658;85.326;2023-01-24T06:59:43;66.18;;;28.20;;
69203;SDS011;56317;27.658;85.326;2023-01-24T07:02:10;53.60;;;28.90;;
69203;SDS011;56317;27.658;85.326;2023-01-24T07:04:57;68.30;;;29.55;;
69203;SDS011;56317;27.658;85.326;2023-01-24T07:07:24;65.65;;;28.33;;
69203;SDS011;56317;27.658;85.326;2023-01-24T07:09:51;60.50;;;29.17;;
69203;SDS011;56317;27.658;85.326;2023-01-24T07:12:19;53.30;;;28.83;;
69203;SDS011;56317;27.658;85.326;2023-01-24T07:14:46;44.67;;;27.85;;
69203;SDS011;56317;27.658;85.326;2023-01-24T07:17:14;45.60;;;28.00;;
69203;SDS011;56317;27.658;85.326;2023-01-24T07:19:41;51.33;;;28.63;;
69203;SDS011;56317;27.658;85.326;2023-01-24T07:22:12;42.72;;;27.27;;
69203;SDS011;56317;27.658;85.326;2023-01-24T07:24:40;40.20;;;28.02;;
69203;SDS011;56317;27.658;85.326;2023-01-24T07:27:08;55.95;;;28.67;;
69203;SDS011;56317;27.658;85.326;2023-01-24T07:29:36;47.13;;;28.55;;
69203;SDS011;56317;27.658;85.326;2023-01-24T07:32:08;43.05;;;28.30;;
69203;SDS011;56317;27.658;85.326;2023-01-24T07:34:36;51.03;;;27.52;;
69203;SDS011;56317;27.658;85.326;2023-01-24T07:37:05;42.92;;;27.00;;
69203;SDS011;56317;27.658;85.326;2023-01-24T07:39:33;55.20;;;30.02;;
69203;SDS011;56317;27.658;85.326;2023-01-24T07:42:00;52.00;;;28.67;;
69203;SDS011;56317;27.658;85.326;2023-01-24T07:44:28;46.78;;;27.88;;
69203;SDS011;56317;27.658;85.326;2023-01-24T07:46:55;54.67;;;29.42;;
69203;SDS011;56317;27.658;85.326;2023-01-24T07:49:22;63.97;;;30.48;;
69203;SDS011;56317;27.658;85.326;2023-01-24T07:51:50;44.78;;;29.60;;
69203;SDS011;56317;27.658;85.326;2023-01-24T07:54:18;50.03;;;30.60;;
69203;SDS011;56317;27.658;85.326;2023-01-24T07:56:45;47.17;;;27.60;;
69203;SDS011;56317;27.658;85.326;2023-01-24T07:59:14;46.70;;;28.52;;
69203;SDS011;56317;27.658;85.326;2023-01-24T08:01:42;50.42;;;27.83;;
69203;SDS011;56317;27.658;85.326;2023-01-24T08:04:09;40.58;;;28.98;;
69203;SDS011;56317;27.658;85.326;2023-01-24T08:06:38;46.63;;;29.00;;
69203;SDS011;56317;27.658;85.326;2023-01-24T08:09:28;46.67;;;27.90;;
69203;SDS011;56317;27.658;85.326;2023-01-24T08:11:55;53.75;;;27.80;;
69203;SDS011;56317;27.658;85.326;2023-01-24T08:14:23;52.75;;;28.17;;
69203;SDS011;56317;27.658;85.326;2023-01-24T08:16:50;39.88;;;26.88;;
69203;SDS011;56317;27.658;85.326;2023-01-24T08:19:18;43.45;;;26.73;;
69203;SDS011;56317;27.658;85.326;2023-01-24T08:21:45;51.97;;;27.48;;
69203;SDS011;56317;27.658;85.326;2023-01-24T08:24:12;39.22;;;25.80;;
69203;SDS011;56317;27.658;85.326;2023-01-24T08:26:40;37.08;;;24.77;;
69203;SDS011;56317;27.658;85.326;2023-01-24T08:29:07;39.80;;;26.17;;
69203;SDS011;56317;27.658;85.326;2023-01-24T08:31:34;43.15;;;24.83;;
69203;SDS011;56317;27.658;85.326;2023-01-24T08:34:02;34.58;;;24.60;;
69203;SDS011;56317;27.658;85.326;2023-01-24T08:36:29;42.65;;;24.52;;
69203;SDS011;56317;27.658;85.326;2023-01-24T08:38:56;45.97;;;25.23;;
69203;SDS011;56317;27.658;85.326;2023-01-24T08:41:24;33.10;;;23.73;;
69203;SDS011;56317;27.658;85.326;2023-01-24T08:43:51;42.75;;;23.90;;
69203;SDS011;56317;27.658;85.326;2023-01-24T08:46:19;44.45;;;26.42;;
69203;SDS011;56317;27.658;85.326;2023-01-24T08:48:46;52.22;;;25.05;;
69203;SDS011;56317;27.658;85.326;2023-01-24T08:51:17;33.60;;;24.75;;
69203;SDS011;56317;27.658;85.326;2023-01-24T08:53:44;40.78;;;25.42;;
69203;SDS011;56317;27.658;85.326;2023-01-24T08:56:12;36.40;;;24.55;;
69203;SDS011;56317;27.658;85.326;2023-01-24T08:58:39;42.70;;;25.10;;
69203;SDS011;56317;27.658;85.326;2023-01-24T09:01:07;40.25;;;24.58;;
69203;SDS011;56317;27.658;85.326;2023-01-24T09:03:35;40.65;;;24.85;;
69203;SDS011;56317;27.658;85.326;2023-01-24T09:06:03;35.45;;;24.23;;
69203;SDS011;56317;27.658;85.326;2023-01-24T09:08:31;36.25;;;23.65;;
69203;SDS011;56317;27.658;85.326;2023-01-24T09:10:59;39.88;;;25.13;;
69203;SDS011;56317;27.658;85.326;2023-01-24T09:13:27;39.33;;;24.10;;
69203;SDS011;56317;27.658;85.326;2023-01-24T09:15:56;39.85;;;25.98;;
69203;SDS011;56317;27.658;85.326;2023-01-24T09:18:27;39.85;;;26.60;;
69203;SDS011;56317;27.658;85.326;2023-01-24T09:20:59;41.10;;;26.13;;
69203;SDS011;56317;27.658;85.326;2023-01-24T09:23:29;40.88;;;25.48;;
69203;SDS011;56317;27.658;85.326;2023-01-24T09:25:57;43.35;;;25.75;;
69203;SDS011;56317;27.658;85.326;2023-01-24T09:28:24;41.00;;;25.63;;
69203;SDS011;56317;27.658;85.326;2023-01-24T09:30:52;38.97;;;24.65;;
69203;SDS011;56317;27.658;85.326;2023-01-24T09:33:21;39.08;;;24.88;;
69203;SDS011;56317;27.658;85.326;2023-01-24T09:35:52;36.88;;;25.00;;
69203;SDS011;56317;27.658;85.326;2023-01-24T09:38:21;37.63;;;24.98;;
69203;SDS011;56317;27.658;85.326;2023-01-24T09:41:08;39.35;;;26.38;;
69203;SDS011;56317;27.658;85.326;2023-01-24T09:43:58;64.85;;;28.27;;
69203;SDS011;56317;27.658;85.326;2023-01-24T09:49:13;47.65;;;26.15;;
69203;SDS011;56317;27.658;85.326;2023-01-24T09:51:50;40.30;;;26.20;;
69203;SDS011;56317;27.658;85.326;2023-01-24T09:54:24;48.00;;;26.55;;
69203;SDS011;56317;27.658;85.326;2023-01-24T10:00:31;46.77;;;26.43;;
69203;SDS011;56317;27.658;85.326;2023-01-24T10:06:23;52.40;;;25.00;;
69203;SDS011;56317;27.658;85.326;2023-01-24T10:09:04;40.17;;;24.52;;
69203;SDS011;56317;27.658;85.326;2023-01-24T10:11:51;36.83;;;24.33;;
69203;SDS011;56317;27.658;85.326;2023-01-24T10:17:35;40.42;;;25.90;;
69203;SDS011;56317;27.658;85.326;2023-01-24T10:25:29;43.35;;;24.70;;
69203;SDS011;56317;27.658;85.326;2023-01-24T10:28:00;40.08;;;25.63;;
69203;SDS011;56317;27.658;85.326;2023-01-24T10:33:39;45.75;;;26.38;;
69203;SDS011;56317;27.658;85.326;2023-01-24T10:39:23;49.10;;;27.65;;
69203;SDS011;56317;27.658;85.326;2023-01-24T10:41:55;48.03;;;29.23;;
69203;SDS011;56317;27.658;85.326;2023-01-24T10:44:28;46.50;;;28.50;;
69203;SDS011;56317;27.658;85.326;2023-01-24T10:50:05;53.22;;;31.38;;
69203;SDS011;56317;27.658;85.326;2023-01-24T10:52:37;56.53;;;32.25;;
69203;SDS011;56317;27.658;85.326;2023-01-24T11:00:58;56.72;;;32.42;;
69203;SDS011;56317;27.658;85.326;2023-01-24T11:03:43;57.60;;;32.35;;
69203;SDS011;56317;27.658;85.326;2023-01-24T11:09:09;63.95;;;32.63;;
69203;SDS011;56317;27.658;85.326;2023-01-24T11:11:50;74.35;;;35.30;;
69203;SDS011;56317;27.658;85.326;2023-01-24T11:14:23;60.78;;;32.65;;
69203;SDS011;56317;27.658;85.326;2023-01-24T11:16:56;60.63;;;34.25;;
69203;SDS011;56317;27.658;85.326;2023-01-24T11:22:19;76.03;;;34.17;;
69203;SDS011;56317;27.658;85.326;2023-01-24T11:24:48;59.75;;;33.40;;
69203;SDS011;56317;27.658;85.326;2023-01-24T11:27:25;71.15;;;35.65;;
69203;SDS011;56317;27.658;85.326;2023-01-24T11:30:07;77.60;;;35.15;;
69203;SDS011;56317;27.658;85.326;2023-01-24T11:32:52;69.00;;;37.55;;
69203;SDS011;56317;27.658;85.326;2023-01-24T11:35:25;82.40;;;38.42;;
69203;SDS011;56317;27.658;85.326;2023-01-24T11:38:06;77.40;;;40.92;;
69203;SDS011;56317;27.658;85.326;2023-01-24T11:40:46;88.63;;;38.42;;
69203;SDS011;56317;27.658;85.326;2023-01-24T11:51:53;67.22;;;37.95;;
69203;SDS011;56317;27.658;85.326;2023-01-24T12:02:43;90.30;;;45.50;;
69203;SDS011;56317;27.658;85.326;2023-01-24T12:08:38;119.18;;;57.65;;
69203;SDS011;56317;27.658;85.326;2023-01-24T12:11:29;114.28;;;58.13;;
69203;SDS011;56317;27.658;85.326;2023-01-24T12:14:13;97.25;;;52.22;;
69203;SDS011;56317;27.658;85.326;2023-01-24T12:22:24;100.63;;;53.80;;
69203;SDS011;56317;27.658;85.326;2023-01-24T12:25:04;92.68;;;50.03;;
69203;SDS011;56317;27.658;85.326;2023-01-24T12:33:13;104.18;;;50.65;;
69203;SDS011;56317;27.658;85.326;2023-01-24T12:35:45;94.72;;;39.28;;
69203;SDS011;56317;27.658;85.326;2023-01-24T12:38:22;115.82;;;55.60;;
69203;SDS011;56317;27.658;85.326;2023-01-24T12:44:11;127.18;;;55.10;;
69203;SDS011;56317;27.658;85.326;2023-01-24T12:57:50;105.03;;;54.53;;
69203;SDS011;56317;27.658;85.326;2023-01-24T13:00:42;110.30;;;55.75;;
69203;SDS011;56317;27.658;85.326;2023-01-24T13:03:47;102.68;;;55.05;;
69203;SDS011;56317;27.658;85.326;2023-01-24T13:06:37;123.25;;;60.75;;
69203;SDS011;56317;27.658;85.326;2023-01-24T13:12:57;167.63;;;81.88;;
69203;SDS011;56317;27.658;85.326;2023-01-24T13:15:37;170.88;;;85.10;;
69203;SDS011;56317;27.658;85.326;2023-01-24T13:26:50;184.90;;;94.57;;
69203;SDS011;56317;27.658;85.326;2023-01-24T13:32:27;223.00;;;104.47;;
69203;SDS011;56317;27.658;85.326;2023-01-24T13:34:57;220.43;;;103.70;;
69203;SDS011;56317;27.658;85.326;2023-01-24T13:37:26;239.60;;;118.75;;
69203;SDS011;56317;27.658;85.326;2023-01-24T13:42:42;220.05;;;114.07;;
69203;SDS011;56317;27.658;85.326;2023-01-24T13:47:56;225.15;;;111.95;;
69203;SDS011;56317;27.658;85.326;2023-01-24T13:50:25;229.40;;;113.53;;
69203;SDS011;56317;27.658;85.326;2023-01-24T13:52:58;245.10;;;119.28;;
69203;SDS011;56317;27.658;85.326;2023-01-24T14:21:30;245.35;;;132.77;;
69203;SDS011;56317;27.658;85.326;2023-01-24T14:27:29;241.10;;;122.65;;
69203;SDS011;56317;27.658;85.326;2023-01-24T14:32:53;226.50;;;117.13;;
69203;SDS011;56317;27.658;85.326;2023-01-24T14:35:26;230.98;;;121.68;;
69203;SDS011;56317;27.658;85.326;2023-01-24T14:38:13;214.57;;;114.88;;
69203;SDS011;56317;27.658;85.326;2023-01-24T14:40:42;229.95;;;121.03;;
69203;SDS011;56317;27.658;85.326;2023-01-24T14:43:15;235.15;;;121.88;;
69203;SDS011;56317;27.658;85.326;2023-01-24T14:45:43;249.45;;;123.53;;
69203;SDS011;56317;27.658;85.326;2023-01-24T14:48:14;237.75;;;126.20;;
69203;SDS011;56317;27.658;85.326;2023-01-24T14:51:11;261.25;;;133.73;;
69203;SDS011;56317;27.658;85.326;2023-01-24T14:53:51;249.93;;;134.38;;
69203;SDS011;56317;27.658;85.326;2023-01-24T14:56:21;266.13;;;134.43;;
69203;SDS011;56317;27.658;85.326;2023-01-24T14:58:49;267.60;;;137.45;;
69203;SDS011;56317;27.658;85.326;2023-01-24T15:03:56;262.92;;;142.00;;
69203;SDS011;56317;27.658;85.326;2023-01-24T15:06:25;226.77;;;122.93;;
69203;SDS011;56317;27.658;85.326;2023-01-24T15:08:54;257.35;;;139.18;;
69203;SDS011;56317;27.658;85.326;2023-01-24T15:11:33;247.20;;;134.85;;
69203;SDS011;56317;27.658;85.326;2023-01-24T15:14:03;278.80;;;138.88;;
69203;SDS011;56317;27.658;85.326;2023-01-24T15:16:34;263.83;;;137.45;;
69203;SDS011;56317;27.658;85.326;2023-01-24T15:19:22;249.27;;;136.25;;
69203;SDS011;56317;27.658;85.326;2023-01-24T15:21:52;300.58;;;144.48;;
69203;SDS011;56317;27.658;85.326;2023-01-24T15:24:25;296.08;;;146.07;;
69203;SDS011;56317;27.658;85.326;2023-01-24T15:26:58;289.77;;;143.13;;
69203;SDS011;56317;27.658;85.326;2023-01-24T15:43:21;288.48;;;148.95;;
69203;SDS011;56317;27.658;85.326;2023-01-24T15:49:05;292.05;;;148.88;;
69203;SDS011;56317;27.658;85.326;2023-01-24T15:54:36;296.05;;;148.93;;
69203;SDS011;56317;27.658;85.326;2023-01-24T15:59:57;284.83;;;148.32;;
69203;SDS011;56317;27.658;85.326;2023-01-24T16:02:47;271.80;;;140.93;;
69203;SDS011;56317;27.658;85.326;2023-01-24T16:05:16;266.48;;;134.90;;
69203;SDS011;56317;27.658;85.326;2023-01-24T16:07:44;270.77;;;136.57;;
69203;SDS011;56317;27.658;85.326;2023-01-24T16:10:12;287.48;;;136.20;;
69203;SDS011;56317;27.658;85.326;2023-01-24T16:12:40;283.13;;;137.90;;
69203;SDS011;56317;27.658;85.326;2023-01-24T16:15:13;296.67;;;141.68;;
69203;SDS011;56317;27.658;85.326;2023-01-24T16:17:42;288.70;;;135.43;;
69203;SDS011;56317;27.658;85.326;2023-01-24T16:20:20;277.33;;;137.35;;
69203;SDS011;56317;27.658;85.326;2023-01-24T16:22:49;268.67;;;137.50;;
69203;SDS011;56317;27.658;85.326;2023-01-24T16:25:16;274.92;;;136.63;;
69203;SDS011;56317;27.658;85.326;2023-01-24T16:27:47;199.67;;;104.47;;
69203;SDS011;56317;27.658;85.326;2023-01-24T16:30:21;253.45;;;133.52;;
69203;SDS011;56317;27.658;85.326;2023-01-24T16:32:49;251.27;;;132.80;;
69203;SDS011;56317;27.658;85.326;2023-01-24T16:35:17;272.88;;;130.32;;
69203;SDS011;56317;27.658;85.326;2023-01-24T16:37:45;237.95;;;116.43;;
69203;SDS011;56317;27.658;85.326;2023-01-24T16:40:13;198.95;;;105.18;;
69203;SDS011;56317;27.658;85.326;2023-01-24T16:42:43;239.10;;;123.22;;
69203;SDS011;56317;27.658;85.326;2023-01-24T16:45:16;243.93;;;120.60;;
69203;SDS011;56317;27.658;85.326;2023-01-24T16:47:45;225.48;;;121.28;;
69203;SDS011;56317;27.658;85.326;2023-01-24T16:50:13;237.75;;;125.80;;
69203;SDS011;56317;27.658;85.326;2023-01-24T16:52:41;253.93;;;125.90;;
69203;SDS011;56317;27.658;85.326;2023-01-24T16:55:08;256.67;;;127.80;;
69203;SDS011;56317;27.658;85.326;2023-01-24T16:57:36;237.68;;;120.22;;
69203;SDS011;56317;27.658;85.326;2023-01-24T17:00:04;246.52;;;125.63;;
69203;SDS011;56317;27.658;85.326;2023-01-24T17:02:39;226.70;;;121.85;;
69203;SDS011;56317;27.658;85.326;2023-01-24T17:05:08;222.43;;;119.55;;
69203;SDS011;56317;27.658;85.326;2023-01-24T17:07:38;212.32;;;117.78;;
69203;SDS011;56317;27.658;85.326;2023-01-24T17:10:05;215.15;;;112.25;;
69203;SDS011;56317;27.658;85.326;2023-01-24T17:12:33;215.85;;;116.18;;
69203;SDS011;56317;27.658;85.326;2023-01-24T17:15:00;219.63;;;119.70;;
69203;SDS011;56317;27.658;85.326;2023-01-24T17:17:28;220.80;;;114.75;;
69203;SDS011;56317;27.658;85.326;2023-01-24T17:19:55;215.63;;;115.57;;
69203;SDS011;56317;27.658;85.326;2023-01-24T17:22:22;216.75;;;113.85;;
69203;SDS011;56317;27.658;85.326;2023-01-24T17:24:49;181.75;;;93.70;;
69203;SDS011;56317;27.658;85.326;2023-01-24T17:27:17;182.60;;;95.18;;
69203;SDS011;56317;27.658;85.326;2023-01-24T17:29:44;214.90;;;107.90;;
69203;SDS011;56317;27.658;85.326;2023-01-24T17:32:13;194.20;;;96.95;;